sensor_id;sensor_type;location;lat;lon;timestamp;P1;durP1;ratioP1;P2;durP2;ratioP2
67841;SDS011;54642;59.126;37.876;2023-10-31T00:01:49;21.20;;;12.30;;
67841;SDS011;54642;59.126;37.876;2023-10-31T00:06:41;13.35;;;8.15;;
67841;SDS011;54642;59.126;37.876;2023-10-31T00:09:07;13.70;;;7.05;;
67841;SDS011;54642;59.126;37.876;2023-10-31T00:11:33;10.45;;;6.78;;
67841;SDS011;54642;59.126;37.876;2023-10-31T00:13:59;11.77;;;7.05;;
67841;SDS011;54642;59.126;37.876;2023-10-31T00:16:25;10.18;;;6.28;;
67841;SDS011;54642;59.126;37.876;2023-10-31T00:18:51;9.93;;;5.88;;
67841;SDS011;54642;59.126;37.876;2023-10-31T00:21:18;11.15;;;6.30;;
67841;SDS011;54642;59.126;37.876;2023-10-31T00:23:47;13.32;;;6.32;;
67841;SDS011;54642;59.126;37.876;2023-10-31T00:26:14;10.82;;;5.65;;
67841;SDS011;54642;59.126;37.876;2023-10-31T00:28:47;13.75;;;6.57;;
67841;SDS011;54642;59.126;37.876;2023-10-31T00:31:13;10.27;;;5.38;;
67841;SDS011;54642;59.126;37.876;2023-10-31T00:36:05;10.23;;;5.78;;
67841;SDS011;54642;59.126;37.876;2023-10-31T00:38:33;11.90;;;5.50;;
67841;SDS011;54642;59.126;37.876;2023-10-31T00:43:24;7.57;;;4.47;;
67841;SDS011;54642;59.126;37.876;2023-10-31T00:45:50;8.65;;;5.43;;
67841;SDS011;54642;59.126;37.876;2023-10-31T00:48:16;10.82;;;5.68;;
67841;SDS011;54642;59.126;37.876;2023-10-31T00:50:43;9.45;;;4.85;;
67841;SDS011;54642;59.126;37.876;2023-10-31T00:53:10;8.82;;;6.10;;
67841;SDS011;54642;59.126;37.876;2023-10-31T00:55:36;9.98;;;5.20;;
67841;SDS011;54642;59.126;37.876;2023-10-31T00:58:01;10.07;;;4.78;;
67841;SDS011;54642;59.126;37.876;2023-10-31T01:00:27;8.65;;;5.00;;
67841;SDS011;54642;59.126;37.876;2023-10-31T01:02:53;9.18;;;5.82;;
67841;SDS011;54642;59.126;37.876;2023-10-31T01:05:19;11.68;;;5.30;;
67841;SDS011;54642;59.126;37.876;2023-10-31T01:07:45;7.82;;;4.70;;
67841;SDS011;54642;59.126;37.876;2023-10-31T01:10:10;9.82;;;5.13;;
67841;SDS011;54642;59.126;37.876;2023-10-31T01:12:36;10.48;;;5.80;;
67841;SDS011;54642;59.126;37.876;2023-10-31T01:17:28;11.20;;;5.55;;
67841;SDS011;54642;59.126;37.876;2023-10-31T01:19:55;12.35;;;5.25;;
67841;SDS011;54642;59.126;37.876;2023-10-31T01:22:20;8.88;;;5.53;;
67841;SDS011;54642;59.126;37.876;2023-10-31T01:24:46;8.35;;;5.63;;
67841;SDS011;54642;59.126;37.876;2023-10-31T01:29:38;7.07;;;4.82;;
67841;SDS011;54642;59.126;37.876;2023-10-31T01:32:04;8.35;;;5.68;;
67841;SDS011;54642;59.126;37.876;2023-10-31T01:34:30;8.90;;;5.10;;
67841;SDS011;54642;59.126;37.876;2023-10-31T01:36:56;8.55;;;5.07;;
67841;SDS011;54642;59.126;37.876;2023-10-31T01:41:47;8.52;;;5.70;;
67841;SDS011;54642;59.126;37.876;2023-10-31T01:44:14;9.18;;;5.63;;
67841;SDS011;54642;59.126;37.876;2023-10-31T01:46:40;11.13;;;5.78;;
67841;SDS011;54642;59.126;37.876;2023-10-31T01:49:06;9.10;;;5.30;;
67841;SDS011;54642;59.126;37.876;2023-10-31T01:51:32;8.38;;;4.95;;
67841;SDS011;54642;59.126;37.876;2023-10-31T01:53:58;10.00;;;5.90;;
67841;SDS011;54642;59.126;37.876;2023-10-31T01:56:24;9.98;;;5.25;;
67841;SDS011;54642;59.126;37.876;2023-10-31T01:58:51;9.60;;;5.13;;
67841;SDS011;54642;59.126;37.876;2023-10-31T02:01:18;9.88;;;5.32;;
67841;SDS011;54642;59.126;37.876;2023-10-31T02:03:45;8.82;;;4.85;;
67841;SDS011;54642;59.126;37.876;2023-10-31T02:06:10;11.25;;;5.57;;
67841;SDS011;54642;59.126;37.876;2023-10-31T02:08:36;11.88;;;6.43;;
67841;SDS011;54642;59.126;37.876;2023-10-31T02:13:30;11.25;;;5.40;;
67841;SDS011;54642;59.126;37.876;2023-10-31T02:15:56;11.25;;;6.72;;
67841;SDS011;54642;59.126;37.876;2023-10-31T02:20:48;11.05;;;5.72;;
67841;SDS011;54642;59.126;37.876;2023-10-31T02:23:17;11.90;;;5.82;;
67841;SDS011;54642;59.126;37.876;2023-10-31T02:25:43;11.30;;;5.65;;
67841;SDS011;54642;59.126;37.876;2023-10-31T02:28:08;10.73;;;6.05;;
67841;SDS011;54642;59.126;37.876;2023-10-31T02:30:34;15.90;;;6.28;;
67841;SDS011;54642;59.126;37.876;2023-10-31T02:33:02;12.15;;;6.68;;
67841;SDS011;54642;59.126;37.876;2023-10-31T02:35:28;10.82;;;5.60;;
67841;SDS011;54642;59.126;37.876;2023-10-31T02:37:54;14.32;;;6.97;;
67841;SDS011;54642;59.126;37.876;2023-10-31T02:42:45;11.20;;;5.72;;
67841;SDS011;54642;59.126;37.876;2023-10-31T02:45:11;16.38;;;6.18;;
67841;SDS011;54642;59.126;37.876;2023-10-31T02:50:03;8.40;;;5.20;;
67841;SDS011;54642;59.126;37.876;2023-10-31T02:52:29;10.05;;;6.40;;
67841;SDS011;54642;59.126;37.876;2023-10-31T02:54:55;11.70;;;6.45;;
67841;SDS011;54642;59.126;37.876;2023-10-31T02:57:21;10.52;;;6.40;;
67841;SDS011;54642;59.126;37.876;2023-10-31T03:02:12;9.95;;;5.72;;
67841;SDS011;54642;59.126;37.876;2023-10-31T03:07:04;10.93;;;5.57;;
67841;SDS011;54642;59.126;37.876;2023-10-31T03:11:55;10.25;;;5.88;;
67841;SDS011;54642;59.126;37.876;2023-10-31T03:14:21;12.80;;;6.05;;
67841;SDS011;54642;59.126;37.876;2023-10-31T03:16:47;9.98;;;5.47;;
67841;SDS011;54642;59.126;37.876;2023-10-31T03:21:38;10.13;;;5.32;;
67841;SDS011;54642;59.126;37.876;2023-10-31T03:26:30;9.68;;;5.20;;
67841;SDS011;54642;59.126;37.876;2023-10-31T03:31:25;10.25;;;5.18;;
67841;SDS011;54642;59.126;37.876;2023-10-31T03:33:51;10.88;;;5.50;;
67841;SDS011;54642;59.126;37.876;2023-10-31T03:38:43;9.32;;;4.72;;
67841;SDS011;54642;59.126;37.876;2023-10-31T03:43:34;11.10;;;5.65;;
67841;SDS011;54642;59.126;37.876;2023-10-31T03:46:01;11.45;;;5.78;;
67841;SDS011;54642;59.126;37.876;2023-10-31T03:50:52;10.82;;;5.80;;
67841;SDS011;54642;59.126;37.876;2023-10-31T03:53:18;9.18;;;5.05;;
67841;SDS011;54642;59.126;37.876;2023-10-31T03:55:44;15.52;;;6.03;;
67841;SDS011;54642;59.126;37.876;2023-10-31T04:00:36;12.02;;;5.35;;
67841;SDS011;54642;59.126;37.876;2023-10-31T04:03:04;12.90;;;5.97;;
67841;SDS011;54642;59.126;37.876;2023-10-31T04:07:55;11.95;;;6.55;;
67841;SDS011;54642;59.126;37.876;2023-10-31T04:12:47;11.45;;;5.63;;
67841;SDS011;54642;59.126;37.876;2023-10-31T04:15:13;12.30;;;5.38;;
67841;SDS011;54642;59.126;37.876;2023-10-31T04:17:39;8.23;;;4.63;;
67841;SDS011;54642;59.126;37.876;2023-10-31T04:20:05;11.20;;;4.88;;
67841;SDS011;54642;59.126;37.876;2023-10-31T04:22:32;7.80;;;4.93;;
67841;SDS011;54642;59.126;37.876;2023-10-31T04:27:23;6.95;;;4.63;;
67841;SDS011;54642;59.126;37.876;2023-10-31T04:32:15;7.22;;;4.07;;
67841;SDS011;54642;59.126;37.876;2023-10-31T04:37:06;9.60;;;4.78;;
67841;SDS011;54642;59.126;37.876;2023-10-31T04:41:58;7.28;;;4.18;;
67841;SDS011;54642;59.126;37.876;2023-10-31T04:46:49;6.95;;;4.38;;
67841;SDS011;54642;59.126;37.876;2023-10-31T04:49:15;10.70;;;4.57;;
67841;SDS011;54642;59.126;37.876;2023-10-31T04:51:41;6.47;;;4.15;;
67841;SDS011;54642;59.126;37.876;2023-10-31T04:54:07;7.05;;;4.28;;
67841;SDS011;54642;59.126;37.876;2023-10-31T04:56:33;8.65;;;4.32;;
67841;SDS011;54642;59.126;37.876;2023-10-31T04:58:59;7.95;;;4.55;;
67841;SDS011;54642;59.126;37.876;2023-10-31T05:01:25;7.13;;;4.45;;
67841;SDS011;54642;59.126;37.876;2023-10-31T05:03:51;5.72;;;4.18;;
67841;SDS011;54642;59.126;37.876;2023-10-31T05:06:20;8.23;;;4.28;;
67841;SDS011;54642;59.126;37.876;2023-10-31T05:08:48;8.07;;;4.35;;
67841;SDS011;54642;59.126;37.876;2023-10-31T05:11:17;8.30;;;4.10;;
67841;SDS011;54642;59.126;37.876;2023-10-31T05:13:46;8.82;;;5.05;;
67841;SDS011;54642;59.126;37.876;2023-10-31T05:16:12;8.35;;;4.78;;
67841;SDS011;54642;59.126;37.876;2023-10-31T05:18:38;8.65;;;4.80;;
67841;SDS011;54642;59.126;37.876;2023-10-31T05:21:04;7.68;;;4.68;;
67841;SDS011;54642;59.126;37.876;2023-10-31T05:23:31;9.27;;;4.72;;
67841;SDS011;54642;59.126;37.876;2023-10-31T05:25:56;8.75;;;4.85;;
67841;SDS011;54642;59.126;37.876;2023-10-31T05:30:49;11.20;;;4.10;;
67841;SDS011;54642;59.126;37.876;2023-10-31T05:33:15;7.57;;;4.03;;
67841;SDS011;54642;59.126;37.876;2023-10-31T05:35:42;9.18;;;5.05;;
67841;SDS011;54642;59.126;37.876;2023-10-31T05:38:08;6.63;;;4.10;;
67841;SDS011;54642;59.126;37.876;2023-10-31T05:40:33;10.45;;;4.85;;
67841;SDS011;54642;59.126;37.876;2023-10-31T05:43:01;9.20;;;4.93;;
67841;SDS011;54642;59.126;37.876;2023-10-31T05:45:28;10.82;;;4.93;;
67841;SDS011;54642;59.126;37.876;2023-10-31T05:47:54;7.88;;;5.10;;
67841;SDS011;54642;59.126;37.876;2023-10-31T05:50:19;9.30;;;4.38;;
67841;SDS011;54642;59.126;37.876;2023-10-31T05:52:46;8.80;;;5.03;;
67841;SDS011;54642;59.126;37.876;2023-10-31T05:55:12;13.00;;;5.75;;
67841;SDS011;54642;59.126;37.876;2023-10-31T05:57:37;11.32;;;6.03;;
67841;SDS011;54642;59.126;37.876;2023-10-31T06:00:03;11.68;;;6.28;;
67841;SDS011;54642;59.126;37.876;2023-10-31T06:02:37;14.30;;;6.95;;
67841;SDS011;54642;59.126;37.876;2023-10-31T06:05:03;11.15;;;5.65;;
67841;SDS011;54642;59.126;37.876;2023-10-31T06:07:29;15.70;;;7.43;;
67841;SDS011;54642;59.126;37.876;2023-10-31T06:09:55;16.60;;;7.68;;
67841;SDS011;54642;59.126;37.876;2023-10-31T06:12:21;16.13;;;8.00;;
67841;SDS011;54642;59.126;37.876;2023-10-31T06:14:47;18.95;;;8.07;;
67841;SDS011;54642;59.126;37.876;2023-10-31T06:17:13;14.98;;;7.68;;
67841;SDS011;54642;59.126;37.876;2023-10-31T06:19:39;16.50;;;7.85;;
67841;SDS011;54642;59.126;37.876;2023-10-31T06:22:11;22.20;;;7.95;;
67841;SDS011;54642;59.126;37.876;2023-10-31T06:24:37;13.90;;;7.63;;
67841;SDS011;54642;59.126;37.876;2023-10-31T06:27:03;12.52;;;7.20;;
67841;SDS011;54642;59.126;37.876;2023-10-31T06:29:28;22.00;;;8.30;;
67841;SDS011;54642;59.126;37.876;2023-10-31T06:31:54;18.50;;;7.60;;
67841;SDS011;54642;59.126;37.876;2023-10-31T06:36:45;14.02;;;7.28;;
67841;SDS011;54642;59.126;37.876;2023-10-31T06:39:11;14.70;;;8.05;;
67841;SDS011;54642;59.126;37.876;2023-10-31T06:41:37;15.98;;;7.68;;
67841;SDS011;54642;59.126;37.876;2023-10-31T06:44:03;15.18;;;8.63;;
67841;SDS011;54642;59.126;37.876;2023-10-31T06:46:29;13.65;;;6.60;;
67841;SDS011;54642;59.126;37.876;2023-10-31T06:48:55;15.07;;;7.40;;
67841;SDS011;54642;59.126;37.876;2023-10-31T06:51:20;18.40;;;7.85;;
67841;SDS011;54642;59.126;37.876;2023-10-31T06:53:46;17.13;;;8.57;;
67841;SDS011;54642;59.126;37.876;2023-10-31T06:56:12;17.95;;;9.20;;
67841;SDS011;54642;59.126;37.876;2023-10-31T06:58:38;20.77;;;8.25;;
67841;SDS011;54642;59.126;37.876;2023-10-31T07:01:04;23.42;;;9.80;;
67841;SDS011;54642;59.126;37.876;2023-10-31T07:03:29;18.55;;;9.30;;
67841;SDS011;54642;59.126;37.876;2023-10-31T07:05:55;21.42;;;9.27;;
67841;SDS011;54642;59.126;37.876;2023-10-31T07:08:22;21.15;;;9.75;;
67841;SDS011;54642;59.126;37.876;2023-10-31T07:10:48;18.35;;;9.20;;
67841;SDS011;54642;59.126;37.876;2023-10-31T07:13:14;17.40;;;9.73;;
67841;SDS011;54642;59.126;37.876;2023-10-31T07:15:40;19.40;;;9.82;;
67841;SDS011;54642;59.126;37.876;2023-10-31T07:18:06;18.85;;;9.55;;
67841;SDS011;54642;59.126;37.876;2023-10-31T07:20:33;15.45;;;7.82;;
67841;SDS011;54642;59.126;37.876;2023-10-31T07:22:59;21.33;;;9.20;;
67841;SDS011;54642;59.126;37.876;2023-10-31T07:25:24;18.52;;;8.68;;
67841;SDS011;54642;59.126;37.876;2023-10-31T07:27:50;18.77;;;8.55;;
67841;SDS011;54642;59.126;37.876;2023-10-31T07:30:16;16.08;;;8.68;;
67841;SDS011;54642;59.126;37.876;2023-10-31T07:32:42;17.45;;;7.88;;
67841;SDS011;54642;59.126;37.876;2023-10-31T07:37:34;21.00;;;9.27;;
67841;SDS011;54642;59.126;37.876;2023-10-31T07:42:25;22.52;;;10.13;;
67841;SDS011;54642;59.126;37.876;2023-10-31T07:44:51;19.15;;;9.60;;
67841;SDS011;54642;59.126;37.876;2023-10-31T07:49:43;21.52;;;11.65;;
67841;SDS011;54642;59.126;37.876;2023-10-31T07:52:08;21.60;;;10.30;;
67841;SDS011;54642;59.126;37.876;2023-10-31T07:54:34;22.17;;;8.50;;
67841;SDS011;54642;59.126;37.876;2023-10-31T07:57:04;17.05;;;9.95;;
67841;SDS011;54642;59.126;37.876;2023-10-31T07:59:32;19.92;;;9.20;;
67841;SDS011;54642;59.126;37.876;2023-10-31T08:01:59;18.92;;;9.57;;
67841;SDS011;54642;59.126;37.876;2023-10-31T08:04:25;19.25;;;8.88;;
67841;SDS011;54642;59.126;37.876;2023-10-31T08:06:51;21.35;;;10.27;;
67841;SDS011;54642;59.126;37.876;2023-10-31T08:09:17;21.45;;;9.63;;
67841;SDS011;54642;59.126;37.876;2023-10-31T08:11:43;22.48;;;10.52;;
67841;SDS011;54642;59.126;37.876;2023-10-31T08:14:09;20.35;;;10.63;;
67841;SDS011;54642;59.126;37.876;2023-10-31T08:16:35;21.95;;;10.18;;
67841;SDS011;54642;59.126;37.876;2023-10-31T08:21:27;19.55;;;10.57;;
67841;SDS011;54642;59.126;37.876;2023-10-31T08:23:59;16.02;;;8.75;;
67841;SDS011;54642;59.126;37.876;2023-10-31T08:26:25;17.30;;;8.30;;
67841;SDS011;54642;59.126;37.876;2023-10-31T08:28:51;18.15;;;9.10;;
67841;SDS011;54642;59.126;37.876;2023-10-31T08:31:17;19.65;;;9.30;;
67841;SDS011;54642;59.126;37.876;2023-10-31T08:33:43;19.58;;;9.10;;
67841;SDS011;54642;59.126;37.876;2023-10-31T08:36:09;18.45;;;9.13;;
67841;SDS011;54642;59.126;37.876;2023-10-31T08:38:35;20.92;;;9.23;;
67841;SDS011;54642;59.126;37.876;2023-10-31T08:41:00;20.33;;;11.15;;
67841;SDS011;54642;59.126;37.876;2023-10-31T08:43:26;20.70;;;10.35;;
67841;SDS011;54642;59.126;37.876;2023-10-31T08:45:52;22.95;;;9.30;;
67841;SDS011;54642;59.126;37.876;2023-10-31T08:48:18;23.35;;;11.48;;
67841;SDS011;54642;59.126;37.876;2023-10-31T08:50:44;28.77;;;11.55;;
67841;SDS011;54642;59.126;37.876;2023-10-31T08:53:10;35.58;;;13.65;;
67841;SDS011;54642;59.126;37.876;2023-10-31T08:55:36;26.73;;;11.68;;
67841;SDS011;54642;59.126;37.876;2023-10-31T08:58:02;30.02;;;14.13;;
67841;SDS011;54642;59.126;37.876;2023-10-31T09:00:28;41.60;;;17.90;;
67841;SDS011;54642;59.126;37.876;2023-10-31T09:02:54;46.78;;;17.92;;
67841;SDS011;54642;59.126;37.876;2023-10-31T09:05:20;61.47;;;22.27;;
67841;SDS011;54642;59.126;37.876;2023-10-31T09:07:46;69.60;;;23.95;;
67841;SDS011;54642;59.126;37.876;2023-10-31T09:10:12;58.67;;;22.55;;
67841;SDS011;54642;59.126;37.876;2023-10-31T09:12:38;62.38;;;22.98;;
67841;SDS011;54642;59.126;37.876;2023-10-31T09:15:04;55.40;;;21.20;;
67841;SDS011;54642;59.126;37.876;2023-10-31T09:17:30;45.13;;;18.52;;
67841;SDS011;54642;59.126;37.876;2023-10-31T09:19:56;39.55;;;17.63;;
67841;SDS011;54642;59.126;37.876;2023-10-31T09:22:22;45.05;;;17.95;;
67841;SDS011;54642;59.126;37.876;2023-10-31T09:24:48;43.00;;;16.83;;
67841;SDS011;54642;59.126;37.876;2023-10-31T09:27:13;37.28;;;15.82;;
67841;SDS011;54642;59.126;37.876;2023-10-31T09:29:40;39.67;;;16.15;;
67841;SDS011;54642;59.126;37.876;2023-10-31T09:32:06;37.65;;;16.45;;
67841;SDS011;54642;59.126;37.876;2023-10-31T09:34:32;44.83;;;16.83;;
67841;SDS011;54642;59.126;37.876;2023-10-31T09:36:58;32.80;;;15.25;;
67841;SDS011;54642;59.126;37.876;2023-10-31T09:39:24;33.38;;;15.30;;
67841;SDS011;54642;59.126;37.876;2023-10-31T09:41:50;33.40;;;15.45;;
67841;SDS011;54642;59.126;37.876;2023-10-31T09:44:16;34.28;;;15.27;;
67841;SDS011;54642;59.126;37.876;2023-10-31T09:46:41;34.50;;;16.40;;
67841;SDS011;54642;59.126;37.876;2023-10-31T09:49:08;35.90;;;15.82;;
67841;SDS011;54642;59.126;37.876;2023-10-31T09:51:36;37.63;;;15.52;;
67841;SDS011;54642;59.126;37.876;2023-10-31T09:54:04;30.63;;;14.70;;
67841;SDS011;54642;59.126;37.876;2023-10-31T09:56:33;34.45;;;14.07;;
67841;SDS011;54642;59.126;37.876;2023-10-31T09:59:00;36.58;;;13.45;;
67841;SDS011;54642;59.126;37.876;2023-10-31T10:01:28;29.48;;;13.77;;
67841;SDS011;54642;59.126;37.876;2023-10-31T10:03:54;37.25;;;14.20;;
67841;SDS011;54642;59.126;37.876;2023-10-31T10:06:21;28.58;;;13.20;;
67841;SDS011;54642;59.126;37.876;2023-10-31T10:08:49;31.90;;;15.80;;
67841;SDS011;54642;59.126;37.876;2023-10-31T10:11:15;31.52;;;15.43;;
67841;SDS011;54642;59.126;37.876;2023-10-31T10:13:41;28.15;;;13.93;;
67841;SDS011;54642;59.126;37.876;2023-10-31T10:16:08;25.65;;;13.25;;
67841;SDS011;54642;59.126;37.876;2023-10-31T10:18:35;23.45;;;11.55;;
67841;SDS011;54642;59.126;37.876;2023-10-31T10:21:05;22.63;;;11.55;;
67841;SDS011;54642;59.126;37.876;2023-10-31T10:23:32;25.73;;;12.15;;
67841;SDS011;54642;59.126;37.876;2023-10-31T10:25:59;22.38;;;10.27;;
67841;SDS011;54642;59.126;37.876;2023-10-31T10:28:26;17.95;;;9.85;;
67841;SDS011;54642;59.126;37.876;2023-10-31T10:30:55;23.40;;;10.23;;
67841;SDS011;54642;59.126;37.876;2023-10-31T10:33:21;18.70;;;9.35;;
67841;SDS011;54642;59.126;37.876;2023-10-31T10:35:47;15.98;;;8.70;;
67841;SDS011;54642;59.126;37.876;2023-10-31T10:40:47;18.83;;;9.10;;
67841;SDS011;54642;59.126;37.876;2023-10-31T10:45:59;17.92;;;7.68;;
67841;SDS011;54642;59.126;37.876;2023-10-31T10:48:26;17.05;;;8.45;;
67841;SDS011;54642;59.126;37.876;2023-10-31T10:53:25;16.48;;;9.05;;
67841;SDS011;54642;59.126;37.876;2023-10-31T10:55:55;20.20;;;9.10;;
67841;SDS011;54642;59.126;37.876;2023-10-31T11:00:56;15.35;;;8.07;;
67841;SDS011;54642;59.126;37.876;2023-10-31T11:03:24;18.88;;;9.18;;
67841;SDS011;54642;59.126;37.876;2023-10-31T11:05:50;17.25;;;8.95;;
67841;SDS011;54642;59.126;37.876;2023-10-31T11:08:16;25.30;;;10.57;;
67841;SDS011;54642;59.126;37.876;2023-10-31T11:10:43;20.40;;;9.73;;
67841;SDS011;54642;59.126;37.876;2023-10-31T11:13:10;23.88;;;9.23;;
67841;SDS011;54642;59.126;37.876;2023-10-31T11:15:37;23.15;;;9.45;;
67841;SDS011;54642;59.126;37.876;2023-10-31T11:18:04;19.27;;;9.30;;
67841;SDS011;54642;59.126;37.876;2023-10-31T11:20:30;17.05;;;9.45;;
67841;SDS011;54642;59.126;37.876;2023-10-31T11:22:57;22.98;;;10.57;;
67841;SDS011;54642;59.126;37.876;2023-10-31T11:25:29;22.80;;;10.05;;
67841;SDS011;54642;59.126;37.876;2023-10-31T11:27:57;22.95;;;10.52;;
67841;SDS011;54642;59.126;37.876;2023-10-31T11:30:41;23.33;;;9.60;;
67841;SDS011;54642;59.126;37.876;2023-10-31T11:33:12;21.75;;;9.73;;
67841;SDS011;54642;59.126;37.876;2023-10-31T11:35:39;21.90;;;9.40;;
67841;SDS011;54642;59.126;37.876;2023-10-31T11:38:09;18.13;;;8.38;;
67841;SDS011;54642;59.126;37.876;2023-10-31T11:40:57;18.83;;;7.85;;
67841;SDS011;54642;59.126;37.876;2023-10-31T11:43:25;15.15;;;7.35;;
67841;SDS011;54642;59.126;37.876;2023-10-31T11:48:17;12.27;;;6.18;;
67841;SDS011;54642;59.126;37.876;2023-10-31T11:51:13;17.30;;;7.78;;
67841;SDS011;54642;59.126;37.876;2023-10-31T11:53:39;11.85;;;8.25;;
67841;SDS011;54642;59.126;37.876;2023-10-31T11:56:05;9.07;;;5.65;;
67841;SDS011;54642;59.126;37.876;2023-10-31T11:58:32;18.17;;;7.85;;
67841;SDS011;54642;59.126;37.876;2023-10-31T12:01:02;13.60;;;6.93;;
67841;SDS011;54642;59.126;37.876;2023-10-31T12:06:08;15.25;;;6.03;;
67841;SDS011;54642;59.126;37.876;2023-10-31T12:08:36;20.90;;;7.88;;
67841;SDS011;54642;59.126;37.876;2023-10-31T12:11:07;18.15;;;8.00;;
67841;SDS011;54642;59.126;37.876;2023-10-31T12:13:35;14.85;;;7.13;;
67841;SDS011;54642;59.126;37.876;2023-10-31T12:16:03;10.90;;;6.85;;
67841;SDS011;54642;59.126;37.876;2023-10-31T12:18:34;18.48;;;6.93;;
67841;SDS011;54642;59.126;37.876;2023-10-31T12:21:01;15.35;;;7.43;;
67841;SDS011;54642;59.126;37.876;2023-10-31T12:23:27;17.10;;;6.45;;
67841;SDS011;54642;59.126;37.876;2023-10-31T12:25:54;12.07;;;5.10;;
67841;SDS011;54642;59.126;37.876;2023-10-31T12:30:50;16.48;;;7.18;;
67841;SDS011;54642;59.126;37.876;2023-10-31T12:33:20;15.52;;;7.28;;
67841;SDS011;54642;59.126;37.876;2023-10-31T12:35:51;18.00;;;7.80;;
67841;SDS011;54642;59.126;37.876;2023-10-31T12:38:21;15.90;;;7.38;;
67841;SDS011;54642;59.126;37.876;2023-10-31T12:40:47;14.60;;;6.78;;
67841;SDS011;54642;59.126;37.876;2023-10-31T12:43:15;15.77;;;7.50;;
67841;SDS011;54642;59.126;37.876;2023-10-31T12:45:41;11.63;;;6.82;;
67841;SDS011;54642;59.126;37.876;2023-10-31T12:50:34;15.20;;;6.85;;
67841;SDS011;54642;59.126;37.876;2023-10-31T12:53:08;12.98;;;6.78;;
67841;SDS011;54642;59.126;37.876;2023-10-31T12:55:38;18.02;;;8.35;;
67841;SDS011;54642;59.126;37.876;2023-10-31T12:58:05;9.63;;;5.80;;
67841;SDS011;54642;59.126;37.876;2023-10-31T13:03:01;15.10;;;8.02;;
67841;SDS011;54642;59.126;37.876;2023-10-31T13:05:28;18.50;;;8.27;;
67841;SDS011;54642;59.126;37.876;2023-10-31T13:10:25;15.18;;;7.80;;
67841;SDS011;54642;59.126;37.876;2023-10-31T13:12:54;14.82;;;8.02;;
67841;SDS011;54642;59.126;37.876;2023-10-31T13:15:21;17.67;;;7.40;;
67841;SDS011;54642;59.126;37.876;2023-10-31T13:17:51;14.85;;;7.45;;
67841;SDS011;54642;59.126;37.876;2023-10-31T13:20:18;19.30;;;8.27;;
67841;SDS011;54642;59.126;37.876;2023-10-31T13:22:46;16.20;;;8.20;;
67841;SDS011;54642;59.126;37.876;2023-10-31T13:25:13;14.70;;;8.77;;
67841;SDS011;54642;59.126;37.876;2023-10-31T13:27:40;16.02;;;6.20;;
67841;SDS011;54642;59.126;37.876;2023-10-31T13:30:10;18.30;;;8.82;;
67841;SDS011;54642;59.126;37.876;2023-10-31T13:32:37;16.00;;;8.40;;
67841;SDS011;54642;59.126;37.876;2023-10-31T13:35:04;16.80;;;7.60;;
67841;SDS011;54642;59.126;37.876;2023-10-31T13:37:31;22.80;;;8.55;;
67841;SDS011;54642;59.126;37.876;2023-10-31T13:42:22;19.15;;;7.25;;
67841;SDS011;54642;59.126;37.876;2023-10-31T13:44:52;17.40;;;6.70;;
67841;SDS011;54642;59.126;37.876;2023-10-31T13:49:43;16.83;;;6.78;;
67841;SDS011;54642;59.126;37.876;2023-10-31T13:52:10;14.30;;;6.15;;
67841;SDS011;54642;59.126;37.876;2023-10-31T13:57:01;15.50;;;6.55;;
67841;SDS011;54642;59.126;37.876;2023-10-31T14:01:53;16.80;;;6.65;;
67841;SDS011;54642;59.126;37.876;2023-10-31T14:06:45;15.82;;;7.28;;
67841;SDS011;54642;59.126;37.876;2023-10-31T14:09:11;16.23;;;7.22;;
67841;SDS011;54642;59.126;37.876;2023-10-31T14:11:37;18.55;;;7.45;;
67841;SDS011;54642;59.126;37.876;2023-10-31T14:14:04;16.10;;;7.68;;
67841;SDS011;54642;59.126;37.876;2023-10-31T14:16:36;19.15;;;8.52;;
67841;SDS011;54642;59.126;37.876;2023-10-31T14:19:04;15.75;;;7.68;;
67841;SDS011;54642;59.126;37.876;2023-10-31T14:21:31;18.40;;;8.65;;
67841;SDS011;54642;59.126;37.876;2023-10-31T14:23:57;15.10;;;6.90;;
67841;SDS011;54642;59.126;37.876;2023-10-31T14:28:49;12.77;;;6.10;;
67841;SDS011;54642;59.126;37.876;2023-10-31T14:31:16;13.40;;;7.10;;
67841;SDS011;54642;59.126;37.876;2023-10-31T14:33:42;21.85;;;10.50;;
67841;SDS011;54642;59.126;37.876;2023-10-31T14:36:09;21.05;;;6.78;;
67841;SDS011;54642;59.126;37.876;2023-10-31T14:38:38;13.50;;;6.03;;
67841;SDS011;54642;59.126;37.876;2023-10-31T14:41:04;17.70;;;5.72;;
67841;SDS011;54642;59.126;37.876;2023-10-31T14:43:30;16.65;;;7.93;;
67841;SDS011;54642;59.126;37.876;2023-10-31T14:45:56;17.70;;;8.30;;
67841;SDS011;54642;59.126;37.876;2023-10-31T14:48:22;11.43;;;5.45;;
67841;SDS011;54642;59.126;37.876;2023-10-31T14:50:49;9.02;;;5.05;;
67841;SDS011;54642;59.126;37.876;2023-10-31T14:53:18;14.80;;;7.20;;
67841;SDS011;54642;59.126;37.876;2023-10-31T14:55:46;17.45;;;8.02;;
67841;SDS011;54642;59.126;37.876;2023-10-31T14:58:13;15.05;;;6.30;;
67841;SDS011;54642;59.126;37.876;2023-10-31T15:00:39;15.05;;;7.00;;
67841;SDS011;54642;59.126;37.876;2023-10-31T15:05:30;16.55;;;6.72;;
67841;SDS011;54642;59.126;37.876;2023-10-31T15:10:25;14.13;;;6.32;;
67841;SDS011;54642;59.126;37.876;2023-10-31T15:12:55;15.73;;;6.70;;
67841;SDS011;54642;59.126;37.876;2023-10-31T15:17:46;14.15;;;6.85;;
67841;SDS011;54642;59.126;37.876;2023-10-31T15:20:13;10.70;;;6.18;;
67841;SDS011;54642;59.126;37.876;2023-10-31T15:22:39;13.93;;;4.38;;
67841;SDS011;54642;59.126;37.876;2023-10-31T15:25:07;12.48;;;6.47;;
67841;SDS011;54642;59.126;37.876;2023-10-31T15:27:34;16.45;;;6.93;;
67841;SDS011;54642;59.126;37.876;2023-10-31T15:32:26;12.85;;;5.90;;
67841;SDS011;54642;59.126;37.876;2023-10-31T15:34:51;13.18;;;6.88;;
67841;SDS011;54642;59.126;37.876;2023-10-31T15:39:43;12.73;;;7.00;;
67841;SDS011;54642;59.126;37.876;2023-10-31T15:42:14;10.82;;;5.03;;
67841;SDS011;54642;59.126;37.876;2023-10-31T15:44:40;9.30;;;5.25;;
67841;SDS011;54642;59.126;37.876;2023-10-31T15:47:06;16.38;;;7.28;;
67841;SDS011;54642;59.126;37.876;2023-10-31T15:49:32;16.98;;;7.43;;
67841;SDS011;54642;59.126;37.876;2023-10-31T15:51:59;15.85;;;7.03;;
67841;SDS011;54642;59.126;37.876;2023-10-31T15:56:50;12.57;;;6.28;;
67841;SDS011;54642;59.126;37.876;2023-10-31T16:01:42;9.48;;;4.97;;
67841;SDS011;54642;59.126;37.876;2023-10-31T16:06:34;14.98;;;7.93;;
67841;SDS011;54642;59.126;37.876;2023-10-31T16:09:01;11.02;;;5.28;;
67841;SDS011;54642;59.126;37.876;2023-10-31T16:11:28;11.00;;;5.78;;
67841;SDS011;54642;59.126;37.876;2023-10-31T16:13:54;14.82;;;6.88;;
67841;SDS011;54642;59.126;37.876;2023-10-31T16:18:46;11.95;;;5.90;;
67841;SDS011;54642;59.126;37.876;2023-10-31T16:23:41;7.82;;;4.32;;
67841;SDS011;54642;59.126;37.876;2023-10-31T16:26:07;16.15;;;6.47;;
67841;SDS011;54642;59.126;37.876;2023-10-31T16:30:58;11.65;;;4.50;;
67841;SDS011;54642;59.126;37.876;2023-10-31T16:35:51;8.35;;;4.03;;
67841;SDS011;54642;59.126;37.876;2023-10-31T16:40:43;10.05;;;5.10;;
67841;SDS011;54642;59.126;37.876;2023-10-31T16:45:34;7.20;;;4.75;;
67841;SDS011;54642;59.126;37.876;2023-10-31T16:50:27;4.05;;;2.38;;
67841;SDS011;54642;59.126;37.876;2023-10-31T16:52:55;12.18;;;5.97;;
67841;SDS011;54642;59.126;37.876;2023-10-31T16:55:22;13.45;;;6.78;;